Time;durP1;ratioP1;P1;durP2;ratioP2;P2;SDS_P1;SDS_P2;PMS_P1;PMS_P2;Temp;Humidity;BMP_temperature;BMP_pressure;BME280_temperature;BME280_humidity;BME280_pressure;Samples;Min_cycle;Max_cycle;Signal;HPM_P1;HPM_P2
2021/08/08 00:01:28;;;;;;;7.78;1.90;;;;;;;15.93;59.77;93512.44;5048857;28;20085;-60
2021/08/08 00:03:54;;;;;;;3.00;1.70;;;;;;;15.89;59.59;93506.56;5048831;28;20507;-60
2021/08/08 00:06:19;;;;;;;1.80;1.52;;;;;;;15.82;59.48;93516.50;5048809;28;20040;-61
2021/08/08 00:08:45;;;;;;;3.20;1.60;;;;;;;15.82;59.81;93518.56;5048725;28;20524;-61
2021/08/08 00:11:10;;;;;;;3.38;1.60;;;;;;;15.83;59.87;93504.03;5048327;28;20032;-61
2021/08/08 00:13:36;;;;;;;5.13;1.70;;;;;;;15.79;60.07;93511.34;5048390;28;20021;-60
2021/08/08 00:16:02;;;;;;;1.60;1.50;;;;;;;15.81;59.59;93509.47;5048386;28;20043;-60
2021/08/08 00:18:27;;;;;;;1.55;1.45;;;;;;;15.70;59.78;93509.28;5048569;28;20025;-61
2021/08/08 00:20:53;;;;;;;3.25;1.58;;;;;;;15.63;60.01;93515.69;5048639;28;20421;-61
2021/08/08 00:23:18;;;;;;;3.08;1.85;;;;;;;15.63;59.93;93515.69;5048161;28;20485;-61
2021/08/08 00:25:45;;;;;;;3.60;1.77;;;;;;;15.67;60.21;93513.97;5048247;28;20029;-61
2021/08/08 00:28:10;;;;;;;3.85;1.55;;;;;;;15.64;60.49;93515.13;5039249;28;20036;-61
2021/08/08 00:30:36;;;;;;;1.85;1.45;;;;;;;15.50;60.20;93513.31;5027725;28;20025;-61
2021/08/08 00:33:02;;;;;;;4.05;1.50;;;;;;;15.17;60.25;93474.63;5028051;28;20021;-62
2021/08/08 00:35:28;;;;;;;2.35;1.60;;;;;;;15.37;60.48;93508.84;5031958;28;20061;-62
2021/08/08 00:37:53;;;;;;;4.20;1.48;;;;;;;15.40;60.67;93504.16;5047976;28;20028;-62
2021/08/08 00:40:19;;;;;;;1.80;1.70;;;;;;;15.42;60.59;93512.66;5047381;28;20035;-62
2021/08/08 00:42:46;;;;;;;3.53;1.40;;;;;;;15.27;60.56;93491.34;5048188;28;20117;-63
2021/08/08 00:45:21;;;;;;;2.53;1.60;;;;;;;15.43;60.59;93517.66;5047873;28;20058;-63
2021/08/08 00:47:47;;;;;;;6.15;1.45;;;;;;;15.31;61.05;93508.34;5047817;28;20017;-62
2021/08/08 00:50:14;;;;;;;8.50;2.15;;;;;;;15.35;60.92;93527.41;5047832;28;20097;-62
2021/08/08 00:52:40;;;;;;;3.35;1.83;;;;;;;15.29;61.05;93515.81;5047985;28;20021;-62
2021/08/08 00:55:07;;;;;;;5.65;1.90;;;;;;;15.29;61.14;93518.59;5047973;28;20029;-62
2021/08/08 00:57:32;;;;;;;2.05;1.85;;;;;;;15.29;61.51;93518.59;5048051;28;20795;-62
2021/08/08 00:59:58;;;;;;;1.63;1.52;;;;;;;15.17;61.63;93515.59;5047665;28;20070;-64
2021/08/08 01:02:24;;;;;;;3.50;1.65;;;;;;;15.13;61.51;93518.06;5046604;28;20033;-63
2021/08/08 01:05:05;;;;;;;4.28;1.85;;;;;;;15.01;61.86;93515.06;5047745;28;20021;-62
2021/08/08 01:07:54;;;;;;;1.48;1.38;;;;;;;14.94;61.67;93517.97;5047909;28;20032;-63
2021/08/08 01:10:20;;;;;;;4.00;1.70;;;;;;;14.96;61.96;93518.13;5046437;28;20025;-63
2021/08/08 01:12:46;;;;;;;2.65;1.60;;;;;;;14.82;62.24;93517.00;5047461;28;20029;-62
2021/08/08 01:15:12;;;;;;;4.43;2.20;;;;;;;14.80;62.70;93517.56;5046474;28;20029;-60
2021/08/08 01:17:38;;;;;;;1.92;1.40;;;;;;;14.82;62.50;93517.72;5047653;28;20409;-60
2021/08/08 01:20:09;;;;;;;2.95;1.90;;;;;;;14.82;63.05;93522.56;5047747;28;20025;-60
2021/08/08 01:22:36;;;;;;;6.25;1.70;;;;;;;14.84;62.77;93525.50;5047697;28;20025;-59
2021/08/08 01:25:04;;;;;;;1.90;1.60;;;;;;;14.79;62.31;93524.44;5047642;28;20062;-59
2021/08/08 01:27:29;;;;;;;2.20;1.90;;;;;;;14.75;62.68;93521.34;5045332;28;20047;-58
2021/08/08 01:29:56;;;;;;;1.85;1.60;;;;;;;14.68;62.97;93527.00;5026149;28;20453;-58
2021/08/08 01:32:22;;;;;;;6.03;1.83;;;;;;;14.70;62.84;93522.34;5027599;28;20413;-60
2021/08/08 01:34:48;;;;;;;2.47;1.98;;;;;;;14.68;63.20;93524.97;5027511;28;20025;-58
2021/08/08 01:37:17;;;;;;;5.22;2.05;;;;;;;14.55;64.29;93533.63;5027624;28;20056;-60
2021/08/08 01:39:46;;;;;;;10.57;2.50;;;;;;;14.62;63.68;93537.63;5024439;28;20441;-60
2021/08/08 01:42:11;;;;;;;;;;;;;;;14.76;63.30;93527.63;5027584;28;20077;-59
2021/08/08 01:44:42;;;;;;;3.20;2.10;;;;;;;14.65;63.77;93528.88;5026475;28;19993;-59
2021/08/08 01:47:07;;;;;;;3.83;1.92;;;;;;;14.57;63.69;93533.06;5026949;28;20033;-58
2021/08/08 01:49:33;;;;;;;2.67;1.70;;;;;;;14.62;62.63;93538.34;5030801;28;20035;-58
2021/08/08 01:51:59;;;;;;;1.60;1.50;;;;;;;14.48;62.65;93517.03;5030882;28;20037;-59
2021/08/08 01:54:25;;;;;;;3.15;1.90;;;;;;;14.54;62.75;93534.19;5029248;28;20113;-59
2021/08/08 01:56:51;;;;;;;4.35;1.70;;;;;;;14.49;63.35;93533.13;5030885;28;20041;-56
2021/08/08 01:59:17;;;;;;;2.28;1.75;;;;;;;14.45;63.24;93530.03;5029368;28;20041;-57
2021/08/08 02:01:43;;;;;;;2.30;1.85;;;;;;;14.44;63.34;93536.91;5030585;28;20114;-54
2021/08/08 02:04:25;;;;;;;2.92;1.70;;;;;;;14.40;63.93;93533.81;5030714;28;20108;-55
2021/08/08 02:06:51;;;;;;;3.85;2.20;;;;;;;14.48;63.33;93530.94;5030441;28;20112;-57
2021/08/08 02:09:17;;;;;;;2.55;1.65;;;;;;;14.46;63.60;93533.53;5030736;28;20039;-59
2021/08/08 02:11:42;;;;;;;2.90;1.60;;;;;;;14.41;63.76;93536.00;5030305;28;20494;-59
2021/08/08 02:14:08;;;;;;;2.28;1.90;;;;;;;14.24;63.26;93516.53;5030216;28;20025;-59
2021/08/08 02:16:34;;;;;;;5.40;2.10;;;;;;;14.36;62.99;93539.00;5030350;28;20026;-59
2021/08/08 02:19:00;;;;;;;4.53;2.03;;;;;;;14.34;63.08;93541.63;5030479;28;20032;-59
2021/08/08 02:21:25;;;;;;;1.63;1.40;;;;;;;14.27;63.30;93540.34;5030334;28;20036;-59
2021/08/08 02:23:51;;;;;;;6.45;1.92;;;;;;;14.27;63.48;93542.41;5030165;28;20432;-59
2021/08/08 02:26:16;;;;;;;2.35;2.15;;;;;;;14.23;63.32;93542.81;5030162;28;20041;-59
2021/08/08 02:28:42;;;;;;;6.18;1.77;;;;;;;14.19;63.42;93539.72;5042173;28;20142;-59
2021/08/08 02:31:07;;;;;;;3.70;2.05;;;;;;;14.12;63.82;93556.44;5050185;28;20068;-59
2021/08/08 02:33:33;;;;;;;2.20;2.00;;;;;;;14.11;64.19;93547.38;5029955;28;20476;-59
2021/08/08 02:35:58;;;;;;;2.50;2.13;;;;;;;14.02;64.62;93556.34;5030147;28;20028;-59
2021/08/08 02:38:26;;;;;;;7.03;2.05;;;;;;;14.04;64.85;93555.78;5030294;28;20048;-59
2021/08/08 02:40:52;;;;;;;4.93;1.60;;;;;;;13.94;64.90;93555.69;5029738;28;20045;-59
2021/08/08 02:43:17;;;;;;;2.03;1.52;;;;;;;13.85;65.46;93561.13;5030092;28;20419;-59
2021/08/08 02:45:45;;;;;;;2.00;1.85;;;;;;;13.96;64.80;93555.09;5030166;28;20045;-59
2021/08/08 02:48:11;;;;;;;2.00;1.90;;;;;;;14.02;64.82;93558.38;5029734;28;20037;-59
2021/08/08 02:50:36;;;;;;;1.80;1.60;;;;;;;13.99;64.35;93557.47;5030010;28;20021;-59
2021/08/08 02:53:02;;;;;;;2.10;1.95;;;;;;;14.09;64.15;93565.91;5030016;28;20040;-59
2021/08/08 02:55:27;;;;;;;4.03;2.03;;;;;;;14.04;64.05;93561.31;5029915;28;20486;-59
2021/08/08 02:57:52;;;;;;;2.10;1.90;;;;;;;14.00;64.13;93569.31;5030040;28;20410;-59
2021/08/08 03:00:18;;;;;;;3.70;2.10;;;;;;;13.79;64.36;93543.97;5028857;28;20032;-59
2021/08/08 03:02:43;;;;;;;2.42;2.22;;;;;;;13.87;64.65;93569.59;5029676;28;20074;-59
2021/08/08 03:05:09;;;;;;;1.77;1.67;;;;;;;13.88;64.26;93571.09;5029839;28;20028;-59
2021/08/08 03:07:35;;;;;;;6.15;1.98;;;;;;;13.91;64.33;93572.72;5029934;28;20629;-58
2021/08/08 03:10:03;;;;;;;5.28;3.47;;;;;;;13.94;64.20;93572.34;5029458;28;20021;-58
2021/08/08 03:12:29;;;;;;;6.28;1.83;;;;;;;13.80;64.38;93575.94;5029383;28;20494;-59
2021/08/08 03:14:54;;;;;;;3.85;1.90;;;;;;;13.78;64.64;93579.28;5029655;28;20038;-59
2021/08/08 03:17:20;;;;;;;2.28;1.95;;;;;;;13.76;64.31;93581.91;5029637;28;20452;-59
2021/08/08 03:19:45;;;;;;;8.00;3.13;;;;;;;13.81;64.47;93591.31;5029698;28;20554;-61
2021/08/08 03:22:10;;;;;;;4.80;1.70;;;;;;;13.72;64.44;93581.56;5029587;28;20022;-61
2021/08/08 03:24:36;;;;;;;2.10;1.85;;;;;;;13.78;64.01;93589.66;5029533;28;20044;-63
2021/08/08 03:27:02;;;;;;;5.70;2.00;;;;;;;13.85;63.28;93594.41;5029518;28;20044;-62
2021/08/08 03:29:27;;;;;;;4.18;1.80;;;;;;;13.79;63.27;93591.16;5030382;28;20017;-62
2021/08/08 03:31:52;;;;;;;2.90;1.73;;;;;;;13.83;62.83;93591.47;5029105;28;20490;-61
2021/08/08 03:34:18;;;;;;;24.70;2.97;;;;;;;13.71;63.56;93587.69;5028845;28;20029;-60
2021/08/08 03:36:43;;;;;;;6.68;2.17;;;;;;;13.73;63.33;93598.97;5029367;28;20033;-63
2021/08/08 03:39:09;;;;;;;8.38;2.22;;;;;;;13.62;63.54;93602.91;5033113;28;20592;-63
2021/08/08 03:41:34;;;;;;;4.15;1.80;;;;;;;13.46;63.79;93602.28;5048793;28;20037;-64
2021/08/08 03:44:00;;;;;;;2.58;1.98;;;;;;;13.52;63.65;93605.56;5048822;28;20025;-64
2021/08/08 03:46:25;;;;;;;3.90;2.08;;;;;;;13.52;63.31;93616.66;5048833;28;20140;-64
2021/08/08 03:48:51;;;;;;;4.78;2.00;;;;;;;13.48;63.14;93613.53;5048711;28;20113;-64
2021/08/08 03:51:16;;;;;;;2.80;2.17;;;;;;;13.47;63.55;93611.34;5048758;28;20095;-60
2021/08/08 03:53:41;;;;;;;2.08;1.90;;;;;;;13.35;63.97;93611.03;5048955;28;20073;-62
2021/08/08 03:56:07;;;;;;;5.22;1.85;;;;;;;13.42;64.18;93606.75;5048883;28;20042;-62
2021/08/08 03:58:32;;;;;;;1.67;1.58;;;;;;;13.47;64.24;93608.56;5048932;28;20085;-59
2021/08/08 04:00:59;;;;;;;3.30;2.35;;;;;;;13.47;63.92;93609.28;5047706;28;20057;-63
2021/08/08 04:03:25;;;;;;;6.00;2.13;;;;;;;13.37;64.68;93610.47;5048993;28;20112;-63
2021/08/08 04:05:50;;;;;;;6.63;2.42;;;;;;;13.26;65.21;93611.63;5048768;28;20413;-62
2021/08/08 04:08:15;;;;;;;6.38;2.42;;;;;;;13.36;65.23;93609.00;5048825;28;20231;-59
2021/08/08 04:10:41;;;;;;;2.30;2.10;;;;;;;13.42;64.76;93624.13;5047275;28;20040;-61
2021/08/08 04:13:06;;;;;;;4.97;2.00;;;;;;;13.44;64.64;93615.97;5048699;28;20021;-60
2021/08/08 04:15:32;;;;;;;12.15;2.30;;;;;;;13.43;64.89;93602.66;5048257;28;20486;-59
2021/08/08 04:17:58;;;;;;;4.82;1.90;;;;;;;13.49;64.70;93611.50;5048230;28;20489;-59
2021/08/08 04:20:23;;;;;;;3.30;2.22;;;;;;;13.50;64.79;93608.16;5048278;28;20050;-59
2021/08/08 04:22:49;;;;;;;4.35;3.45;;;;;;;13.54;64.93;93614.06;5048506;28;20036;-59
2021/08/08 04:25:14;;;;;;;4.22;3.63;;;;;;;13.54;65.29;93616.09;5048331;28;20108;-58
2021/08/08 04:27:40;;;;;;;5.43;3.17;;;;;;;13.48;65.48;93619.09;5048071;28;20053;-59
2021/08/08 04:30:05;;;;;;;4.78;2.50;;;;;;;13.51;65.65;93620.00;5048135;28;20017;-59
2021/08/08 04:32:31;;;;;;;3.85;2.47;;;;;;;13.45;65.57;93609.09;5048020;28;20029;-58
2021/08/08 04:34:56;;;;;;;4.28;2.83;;;;;;;13.40;66.29;93621.19;5048317;28;20059;-58
2021/08/08 04:37:22;;;;;;;20.95;3.05;;;;;;;13.41;66.71;93622.63;5048303;28;20624;-58
2021/08/08 04:39:49;;;;;;;13.88;2.33;;;;;;;13.60;66.48;93622.16;5038366;28;20438;-59
2021/08/08 04:42:15;;;;;;;5.20;2.50;;;;;;;13.75;66.53;93629.66;5027932;28;20434;-59
2021/08/08 04:44:40;;;;;;;3.63;2.85;;;;;;;13.86;66.29;93626.44;5028274;28;20061;-59
2021/08/08 04:47:06;;;;;;;8.80;3.03;;;;;;;13.97;65.92;93626.00;5028062;28;20025;-63
2021/08/08 04:49:31;;;;;;;3.72;2.67;;;;;;;14.03;66.24;93629.25;5028176;28;20028;-60
2021/08/08 04:51:58;;;;;;;2.80;2.55;;;;;;;14.13;66.20;93633.63;5027963;28;20022;-60
2021/08/08 04:54:25;;;;;;;6.93;2.25;;;;;;;14.21;65.76;93622.44;5028191;28;20025;-61
2021/08/08 04:56:51;;;;;;;7.28;2.50;;;;;;;14.20;66.54;93629.31;5027701;28;20025;-59
2021/08/08 04:59:16;;;;;;;3.55;2.50;;;;;;;14.25;66.72;93633.91;5027882;28;20082;-60
2021/08/08 05:01:42;;;;;;;8.07;3.67;;;;;;;14.35;66.36;93635.50;5027708;28;20014;-59
2021/08/08 05:04:07;;;;;;;11.70;4.85;;;;;;;14.42;66.61;93637.47;5028134;28;20078;-59
2021/08/08 05:06:33;;;;;;;11.60;5.65;;;;;;;14.56;66.38;93637.88;5027659;28;20078;-59
2021/08/08 05:08:59;;;;;;;5.40;4.03;;;;;;;14.70;66.67;93641.84;5027594;28;20117;-58
2021/08/08 05:11:24;;;;;;;6.22;3.85;;;;;;;14.75;66.70;93643.63;5027598;28;20033;-59
2021/08/08 05:13:50;;;;;;;6.60;3.30;;;;;;;14.80;67.26;93645.44;5027696;28;20021;-60
2021/08/08 05:16:15;;;;;;;4.28;2.92;;;;;;;14.92;67.23;93637.34;5027795;28;20017;-62
2021/08/08 05:18:41;;;;;;;3.30;2.72;;;;;;;14.95;67.14;93625.06;5027827;28;20406;-63
2021/08/08 05:21:06;;;;;;;3.67;2.50;;;;;;;15.10;66.81;93639.53;5027654;28;20022;-64
2021/08/08 05:23:32;;;;;;;3.20;2.90;;;;;;;15.24;67.10;93651.06;5027353;28;20021;-63
2021/08/08 05:25:59;;;;;;;4.50;3.40;;;;;;;15.40;67.24;93646.78;5046350;28;20022;-63
2021/08/08 05:28:26;;;;;;;15.50;5.32;;;;;;;15.49;66.32;93637.03;5037492;28;20085;-59
2021/08/08 05:30:51;;;;;;;8.52;4.90;;;;;;;15.58;66.18;93634.34;5027253;28;20060;-59
2021/08/08 05:33:17;;;;;;;10.98;6.35;;;;;;;15.71;65.60;93638.78;5027350;28;20072;-59
2021/08/08 05:35:43;;;;;;;6.18;5.22;;;;;;;15.78;65.13;93640.75;5035317;28;20093;-63
2021/08/08 05:38:08;;;;;;;5.75;4.50;;;;;;;15.87;64.48;93645.63;5047143;28;20493;-62
2021/08/08 05:40:34;;;;;;;5.20;3.92;;;;;;;15.96;64.02;93633.06;5037436;28;20107;-63
2021/08/08 05:43:00;;;;;;;3.40;3.10;;;;;;;16.07;63.29;93643.66;5036818;28;20049;-61
2021/08/08 05:45:26;;;;;;;5.65;3.33;;;;;;;16.14;63.48;93637.22;5035528;28;20031;-63
2021/08/08 05:47:51;;;;;;;3.53;3.03;;;;;;;16.29;63.66;93640.50;5032358;28;20490;-63
2021/08/08 05:50:17;;;;;;;6.38;2.85;;;;;;;16.43;63.62;93635.28;5035814;28;20013;-64
2021/08/08 05:52:50;;;;;;;4.25;2.40;;;;;;;16.52;63.02;93638.09;5032676;28;20028;-64
2021/08/08 05:55:17;;;;;;;7.65;2.15;;;;;;;16.63;62.43;93637.53;5035516;28;20551;-62
2021/08/08 05:57:42;;;;;;;2.92;2.30;;;;;;;16.84;60.47;93639.78;5035688;28;20056;-63
2021/08/08 06:00:08;;;;;;;3.25;2.00;;;;;;;16.87;61.04;93630.22;5035418;28;20108;-63
2021/08/08 06:02:34;;;;;;;4.22;1.80;;;;;;;17.16;60.29;93642.16;5034886;28;20447;-63
2021/08/08 06:04:59;;;;;;;4.63;2.42;;;;;;;17.24;61.29;93636.41;5036228;28;20021;-60
2021/08/08 06:07:25;;;;;;;9.20;2.05;;;;;;;17.31;60.85;93638.31;5037003;28;20024;-60
2021/08/08 06:09:50;;;;;;;6.10;1.60;;;;;;;17.43;61.14;93636.41;5047041;28;20033;-60
2021/08/08 06:12:16;;;;;;;6.75;2.30;;;;;;;17.57;59.51;93634.66;5028279;28;20061;-59
2021/08/08 06:14:42;;;;;;;5.45;1.95;;;;;;;17.64;59.44;93630.22;5026054;28;20407;-62
2021/08/08 06:17:07;;;;;;;4.18;2.50;;;;;;;17.73;59.46;93630.22;5026007;28;20033;-61
2021/08/08 06:19:32;;;;;;;2.42;2.22;;;;;;;17.85;59.61;93631.06;5043367;28;20035;-59
2021/08/08 06:21:58;;;;;;;6.70;2.13;;;;;;;17.97;58.07;93631.91;5045256;28;20025;-59
2021/08/08 06:24:23;;;;;;;2.55;2.20;;;;;;;18.04;57.48;93627.47;5045035;28;20033;-52
2021/08/08 06:26:49;;;;;;;1.92;1.70;;;;;;;18.29;55.71;93627.81;5045235;28;20700;-58
2021/08/08 06:29:14;;;;;;;5.32;2.35;;;;;;;18.40;55.39;93627.16;5045566;28;20032;-59
2021/08/08 06:31:40;;;;;;;6.47;1.63;;;;;;;18.55;54.35;93640.06;5045817;28;20104;-61
2021/08/08 06:34:05;;;;;;;4.15;1.98;;;;;;;18.63;54.39;93635.75;5046299;28;20032;-60
2021/08/08 06:36:31;;;;;;;7.78;2.30;;;;;;;18.71;54.76;93627.88;5048912;28;20021;-59
2021/08/08 06:38:58;;;;;;;6.80;2.20;;;;;;;18.85;54.81;93631.66;5048568;28;20077;-59
2021/08/08 06:41:24;;;;;;;5.80;2.20;;;;;;;19.19;55.09;93630.34;5048663;28;20478;-58
2021/08/08 06:43:50;;;;;;;3.40;2.08;;;;;;;19.17;54.73;93633.03;5049176;28;20100;-60
2021/08/08 06:46:16;;;;;;;3.88;2.20;;;;;;;19.28;53.79;93634.41;5048796;28;20497;-60
2021/08/08 06:48:43;;;;;;;55.50;5.88;;;;;;;19.30;53.52;93638.09;5049106;28;20028;-57
2021/08/08 06:51:08;;;;;;;3.50;2.20;;;;;;;19.60;51.94;93636.50;5048940;28;20493;-61
2021/08/08 06:53:33;;;;;;;3.28;1.83;;;;;;;19.74;51.55;93643.03;5048959;28;20066;-60
2021/08/08 06:55:59;;;;;;;3.00;2.22;;;;;;;20.04;53.12;93639.31;5049045;28;20021;-60
2021/08/08 06:59:17;;;;;;;18.58;2.63;;;;;;;20.14;52.28;93634.31;5048363;28;20419;-63
2021/08/08 07:01:43;;;;;;;46.08;4.65;;;;;;;20.28;50.63;93632.44;5037131;28;20033;-58
2021/08/08 07:04:09;;;;;;;2.92;1.98;;;;;;;20.61;49.36;93625.97;5027573;28;20029;-58
2021/08/08 07:06:34;;;;;;;26.58;4.47;;;;;;;20.65;50.50;93624.13;5028819;28;20021;-61
2021/08/08 07:09:01;;;;;;;7.78;2.00;;;;;;;20.69;49.64;93620.81;5028918;28;20048;-59
2021/08/08 07:11:27;;;;;;;6.93;1.75;;;;;;;20.74;49.98;93620.47;5028680;28;20029;-60
2021/08/08 07:13:52;;;;;;;5.07;1.67;;;;;;;20.99;49.11;93622.59;5028485;28;20037;-61
2021/08/08 07:16:18;;;;;;;2.95;1.48;;;;;;;21.17;47.92;93620.88;5029922;28;20505;-63
2021/08/08 07:18:44;;;;;;;2.42;1.70;;;;;;;21.45;46.64;93618.94;5048447;28;20025;-62
2021/08/08 07:21:10;;;;;;;2.00;1.73;;;;;;;21.99;45.84;93618.47;5048366;28;20096;-61
2021/08/08 07:23:35;;;;;;;2.05;1.30;;;;;;;22.45;43.68;93607.63;5048308;28;20512;-60
2021/08/08 07:26:01;;;;;;;1.90;1.48;;;;;;;22.71;41.78;93619.56;5048000;28;20021;-59
2021/08/08 07:28:27;;;;;;;2.90;1.60;;;;;;;22.83;41.96;93594.84;5047651;28;20028;-60
2021/08/08 07:30:52;;;;;;;3.10;1.38;;;;;;;23.27;40.83;93624.50;5045741;28;20060;-62
2021/08/08 07:33:18;;;;;;;1.55;1.45;;;;;;;23.41;39.73;93624.53;5046027;28;20036;-61
2021/08/08 07:35:44;;;;;;;2.25;1.67;;;;;;;23.85;38.49;93621.75;5046020;28;20036;-57
2021/08/08 07:38:10;;;;;;;3.03;1.58;;;;;;;24.26;37.42;93618.00;5045886;28;20033;-58
2021/08/08 07:40:35;;;;;;;5.68;1.40;;;;;;;24.83;36.02;93619.97;5029161;28;20555;-60
2021/08/08 07:43:01;;;;;;;1.50;1.40;;;;;;;25.47;34.45;93616.34;5026629;28;20026;-58
2021/08/08 07:45:26;;;;;;;1.60;1.40;;;;;;;26.83;32.86;93611.78;5027619;28;20414;-65
2021/08/08 07:47:52;;;;;;;1.30;1.10;;;;;;;29.24;29.07;93613.19;5028530;28;20021;-62
2021/08/08 07:50:18;;;;;;;3.58;1.52;;;;;;;31.52;26.24;93612.78;5042300;28;20556;-60
2021/08/08 07:52:43;;;;;;;2.10;1.17;;;;;;;31.70;24.21;93623.81;5048027;28;20761;-65
2021/08/08 07:55:09;;;;;;;2.85;1.20;;;;;;;31.55;24.36;93622.84;5047415;28;20457;-61
2021/08/08 07:57:35;;;;;;;1.30;1.15;;;;;;;33.13;23.50;93626.06;5048012;28;20070;-62
2021/08/08 08:00:01;;;;;;;1.13;1.00;;;;;;;32.49;22.41;93623.72;5047906;28;20432;-63
2021/08/08 08:02:27;;;;;;;2.97;1.58;;;;;;;31.45;23.85;93614.06;5048073;28;20074;-62
2021/08/08 08:04:52;;;;;;;1.42;1.00;;;;;;;33.03;21.70;93625.94;5047182;28;20029;-62
2021/08/08 08:07:18;;;;;;;1.92;1.30;;;;;;;33.82;20.11;93618.97;5047501;28;20032;-67
2021/08/08 08:09:43;;;;;;;0.90;0.90;;;;;;;33.90;21.72;93610.44;5047079;28;20562;-59
2021/08/08 08:12:09;;;;;;;7.30;1.10;;;;;;;33.42;21.03;93619.97;5047528;28;20116;-62
2021/08/08 08:14:34;;;;;;;1.15;1.10;;;;;;;33.31;21.33;93609.13;5029035;28;20033;-62
2021/08/08 08:17:00;;;;;;;1.65;1.33;;;;;;;33.35;21.02;93615.59;5027427;28;20058;-60
2021/08/08 08:19:25;;;;;;;1.63;1.00;;;;;;;33.93;21.34;93612.66;5027602;28;20034;-62
2021/08/08 08:21:51;;;;;;;0.80;0.80;;;;;;;35.82;19.00;93615.22;5027513;28;20025;-62
2021/08/08 08:24:16;;;;;;;7.75;1.23;;;;;;;37.11;17.82;93616.66;5028002;28;20032;-65
2021/08/08 08:26:42;;;;;;;1.98;1.00;;;;;;;38.26;16.69;93615.38;5027631;28;20158;-61
2021/08/08 08:29:08;;;;;;;7.43;1.58;;;;;;;39.66;15.52;93619.03;5027493;28;20463;-65
2021/08/08 08:31:34;;;;;;;1.20;0.88;;;;;;;39.31;14.82;93618.03;5027529;28;20504;-65
2021/08/08 08:34:00;;;;;;;0.80;0.80;;;;;;;39.74;15.46;93618.22;5032478;28;20033;-65
2021/08/08 08:36:26;;;;;;;1.02;0.90;;;;;;;40.52;13.42;93596.84;5045968;28;20028;-64
2021/08/08 08:38:51;;;;;;;1.20;1.10;;;;;;;40.75;13.41;93608.75;5045032;28;20085;-62
2021/08/08 08:41:17;;;;;;;0.80;0.80;;;;;;;41.14;13.87;93612.41;5025571;28;20049;-63
2021/08/08 08:43:44;;;;;;;3.30;1.10;;;;;;;41.85;12.92;93611.72;5044128;28;20021;-67
2021/08/08 08:46:10;;;;;;;1.13;0.82;;;;;;;41.65;12.67;93600.53;5045408;28;20505;-62
2021/08/08 08:48:37;;;;;;;2.25;0.80;;;;;;;40.47;13.55;93601.25;5047018;28;20533;-65
2021/08/08 08:51:04;;;;;;;5.43;1.83;;;;;;;40.91;14.28;93607.78;5046460;28;20063;-62
2021/08/08 08:53:30;;;;;;;4.88;2.85;;;;;;;38.25;15.15;93605.31;5046896;28;20032;-65
2021/08/08 08:55:59;;;;;;;1.73;1.40;;;;;;;37.44;16.83;93616.56;5046916;28;20044;-66
2021/08/08 08:58:24;;;;;;;1.13;1.00;;;;;;;38.52;14.76;93613.00;5046262;28;20029;-65
2021/08/08 09:00:50;;;;;;;1.48;1.00;;;;;;;39.78;13.63;93604.44;5046531;28;20035;-67
2021/08/08 09:03:15;;;;;;;0.85;0.85;;;;;;;40.66;14.03;93601.66;5047023;28;20045;-64
2021/08/08 09:05:41;;;;;;;0.95;0.85;;;;;;;41.44;12.51;93602.41;5046415;28;20021;-68
2021/08/08 09:08:06;;;;;;;0.90;0.90;;;;;;;42.09;12.93;93598.88;5046907;28;20036;-64
2021/08/08 09:21:54;;;;;;;1.77;0.95;;;;;;;40.52;13.62;93593.22;5127576;27;20611;-65
2021/08/08 09:24:33;;;;;;;0.82;0.82;;;;;;;41.30;13.01;93603.41;5127764;27;20120;-66
2021/08/08 09:27:13;;;;;;;1.33;1.05;;;;;;;42.23;12.42;93595.66;5127067;27;20439;-67
2021/08/08 09:29:46;;;;;;;4.00;1.20;;;;;;;42.67;11.94;93588.03;5127006;27;20515;-60
2021/08/08 09:32:12;;;;;;;0.80;0.60;;;;;;;43.14;11.36;93585.38;5127044;27;20027;-65
2021/08/08 09:34:46;;;;;;;1.58;0.70;;;;;;;42.07;11.68;93588.03;5127708;27;20030;-61
2021/08/08 09:37:20;;;;;;;0.88;0.80;;;;;;;42.24;12.01;93586.19;5126810;27;20492;-60
2021/08/08 09:39:53;;;;;;;1.25;1.00;;;;;;;41.20;12.53;93585.47;5126989;27;20084;-58
2021/08/08 09:42:24;;;;;;;1.23;0.88;;;;;;;39.55;14.08;93596.78;5125949;27;20102;-63
2021/08/08 09:44:55;;;;;;;1.02;0.93;;;;;;;40.90;13.10;93595.47;5126431;27;20035;-62
2021/08/08 09:47:22;;;;;;;1.00;0.90;;;;;;;41.86;12.46;93592.84;5127049;27;20563;-64
2021/08/08 09:50:04;;;;;;;1.27;0.75;;;;;;;42.80;10.75;93589.88;5126671;27;20020;-66
2021/08/08 09:52:30;;;;;;;1.50;0.85;;;;;;;43.52;10.87;93598.84;5106944;28;20067;-59
2021/08/08 09:54:56;;;;;;;3.95;0.90;;;;;;;43.78;10.04;93594.50;5106102;28;20057;-64
2021/08/08 09:57:21;;;;;;;2.83;1.10;;;;;;;44.45;10.07;93589.53;5114671;28;20031;-62
2021/08/08 09:59:48;;;;;;;5.80;1.10;;;;;;;44.99;9.53;93579.00;5110251;27;20036;-66
2021/08/08 10:02:19;;;;;;;4.57;1.30;;;;;;;45.38;9.79;93587.81;5108958;28;20555;-67
2021/08/08 10:04:45;;;;;;;7.60;1.35;;;;;;;45.89;8.89;93589.59;5126352;27;20492;-65
2021/08/08 10:07:10;;;;;;;8.60;0.95;;;;;;;45.92;8.99;93582.19;5126720;27;20031;-67
2021/08/08 10:09:36;;;;;;;0.90;0.73;;;;;;;46.05;8.87;93591.22;5126912;27;20400;-68
2021/08/08 10:12:16;;;;;;;26.27;3.10;;;;;;;45.69;8.72;93585.25;5126541;27;20033;-64
2021/08/08 10:14:43;;;;;;;8.20;1.50;;;;;;;45.98;8.59;93592.94;5119917;28;20028;-64
2021/08/08 10:17:09;;;;;;;1.02;0.80;;;;;;;45.40;8.82;93587.06;5105061;28;20032;-54
2021/08/08 10:19:35;;;;;;;0.80;0.80;;;;;;;45.74;8.68;93580.66;5117174;28;20526;-61
2021/08/08 10:22:00;;;;;;;1.77;0.70;;;;;;;45.29;8.58;93591.84;5117418;27;20042;-63
2021/08/08 10:24:26;;;;;;;2.05;0.70;;;;;;;44.72;8.76;93598.84;5112906;28;20068;-61
2021/08/08 10:26:51;;;;;;;1.35;1.10;;;;;;;44.80;9.63;93598.59;5112823;28;20023;-56
2021/08/08 10:29:19;;;;;;;1.05;0.95;;;;;;;44.52;10.34;93587.88;5112642;28;20028;-58
2021/08/08 10:31:48;;;;;;;1.52;0.90;;;;;;;44.40;9.63;93589.66;5112462;28;20035;-59
2021/08/08 10:34:14;;;;;;;0.70;0.70;;;;;;;44.63;9.56;93586.75;5112816;28;20024;-59
2021/08/08 10:36:39;;;;;;;0.70;0.70;;;;;;;44.85;8.79;93594.06;5112854;28;20400;-59
2021/08/08 10:39:15;;;;;;;1.42;0.90;;;;;;;44.71;9.57;93580.66;5112245;28;20419;-61
2021/08/08 10:41:53;;;;;;;2.33;0.90;;;;;;;45.35;9.53;93577.75;5112370;28;20023;-58
2021/08/08 10:44:20;;;;;;;1.83;0.80;;;;;;;44.88;9.60;93572.81;5112281;28;20556;-61
2021/08/08 10:46:48;;;;;;;2.55;0.90;;;;;;;45.04;9.64;93569.34;5112411;28;20141;-58
2021/08/08 10:49:14;;;;;;;1.25;1.08;;;;;;;45.70;9.80;93569.16;5112233;28;20039;-63
2021/08/08 10:51:40;;;;;;;1.00;0.85;;;;;;;43.12;10.32;93573.81;5101496;28;20516;-67
2021/08/08 10:54:07;;;;;;;1.10;0.60;;;;;;;42.68;10.64;93566.97;5107848;28;20022;-62
2021/08/08 10:56:43;;;;;;;2.20;1.00;;;;;;;41.11;12.77;93573.34;5112488;28;20015;-61
2021/08/08 10:59:19;;;;;;;9.65;1.45;;;;;;;42.15;12.67;93573.31;5111748;27;20063;-64
2021/08/08 11:01:47;;;;;;;1.10;0.98;;;;;;;42.84;11.86;93565.84;5111835;28;20042;-58
2021/08/08 11:04:14;;;;;;;5.35;1.00;;;;;;;43.26;11.31;93555.28;5111897;28;20028;-61
2021/08/08 11:06:43;;;;;;;0.82;0.82;;;;;;;43.68;11.32;93565.72;5109281;28;20027;-58
2021/08/08 11:09:08;;;;;;;0.85;0.85;;;;;;;44.41;9.88;93567.78;5072808;28;20036;-59
2021/08/08 11:11:36;;;;;;;2.58;0.90;;;;;;;44.74;10.18;93572.56;5110210;28;20389;-59
2021/08/08 11:14:11;;;;;;;2.80;1.02;;;;;;;44.98;10.79;93565.94;5112083;28;20030;-58
2021/08/08 11:16:37;;;;;;;2.53;1.60;;;;;;;45.26;10.17;93561.31;5111891;28;20027;-60
2021/08/08 11:19:02;;;;;;;1.60;1.00;;;;;;;45.35;9.55;93569.00;5111732;28;20057;-58
2021/08/08 11:21:28;;;;;;;1.33;1.23;;;;;;;44.91;10.18;93550.88;5111330;28;20200;-62
2021/08/08 11:24:02;;;;;;;19.77;1.90;;;;;;;44.65;10.60;93566.31;5111775;28;20043;-59
2021/08/08 11:26:28;;;;;;;1.27;0.88;;;;;;;44.67;10.57;93574.25;5111303;28;20027;-64
2021/08/08 11:29:02;;;;;;;8.70;1.10;;;;;;;44.28;10.33;93568.97;5111616;28;20039;-58
2021/08/08 11:31:30;;;;;;;3.03;1.08;;;;;;;43.99;11.05;93566.19;5111356;28;20027;-59
2021/08/08 11:33:57;;;;;;;1.00;0.98;;;;;;;43.28;10.95;93564.66;5109355;28;20048;-60
2021/08/08 11:36:40;;;;;;;2.17;0.90;;;;;;;42.25;12.05;93549.88;5111610;28;20023;-57
2021/08/08 11:39:08;;;;;;;24.95;2.05;;;;;;;41.54;12.29;93550.03;5111588;28;20076;-59
2021/08/08 11:41:34;;;;;;;1.25;1.15;;;;;;;40.92;12.88;93554.16;5110883;28;20496;-56
2021/08/08 11:44:09;;;;;;;1.20;1.10;;;;;;;40.29;13.16;93549.44;5111133;28;20034;-61